Hauptseite
METAR-TAF:

METAR-TAF

Flughäfen :

Spangdahlem Air Base

Spangdahlem, Deutschland

Breite: 49-59N, Länge: 006-42E, Höhe: 365 m

Beobachtung

Neuester Wetterbericht von vor 17 Minuten, um 05:56 UTC
Wind 9 kt aus Nordost
Temperatur 3°C
Luftfeuchtigkeit 75%
Luftdruck 1031 hPa
Sichtweite 10 km oder mehr
Himmel klar

METAR: ETAD 010556Z AUTO 05009KT 9999 CLR 03/M01 A3045 RMK AO2 SLP315 T00251011 10041 20024 55001 TSNO $

Zeit: 07:13 (06:13 UTC)

Prognose

Neuester Wetterbericht von vor 1 Stunde und 15 Minuten, um 04:58 UTC
Gültige Prognose vom 01 um 05 UTC bis 02 um 11 UTC
Wind 8 kt aus Ost/Nordost
Sichtweite 10 km oder mehr
Himmel klar
Übergehend zu
vom 01 um 08 UTC bis 01 um 09 UTC
Wind 6 kt aus Ost/Nordost, Böen bis zu 15 kt
Sichtweite: 0118 m
Himmel klar

TAF: ETAD 010458Z 0105/0211 06008KT 9999 SKC QNH3045INS BECMG 0108/0109 08010G15KT 9999 SKC QNH3045INS WND 07006KT AFT 0118 TX09/0115Z TN00/0205Z

Wetterbeobachtungen und Prognosen von mehr als 4000 Flughäfen (METAR und TAF Bericht).

Die verfügbaren Stationen werden durch gelbe und rote Markierungen auf der Karte dargestellt.

Führen Sie die Maus auf sie, um den Namen der Station zu sehen.

Darauf klicken, um die Beobachtung von Wetterbeobachtungen und Prognosen zu sehen.

Um die Karte zu ändern : klicken Sie auf den grünen Tasten mit einem schwarzen Kreuz Zum Vergrößern, auf den grünen Button mit einem Gedankenstrich zu verkleinern, oder auf die grünen Pfeile für benachbarte Karten.


METAR-TAF: